This is the latest recevied weather packets stored in our database for station/object N8WEL. If no packets are shown the sender has not sent any weather packets the latest 10 day(s).
| Time | Temp. | Humidity | Pressure | Rain* | Wind** | Luminosity | Snow |
|---|---|---|---|---|---|---|---|
| 1778241749 | 8.33° C | 67% | 1013.1 hPa | 0 mm | - | - | - |
| 1778241748 | 8.89° C | 66% | 1013.1 hPa | 0 mm | - | - | - |
| 1778241747 | 8.89° C | 65% | 1013.1 hPa | 0 mm | - | - | - |
| 1778202279 | 9.44° C | 63% | 1013.1 hPa | 0 mm | - | - | - |
| 1778201941 | 10° C | 61% | 1012 hPa | 0 mm | - | - | - |
| 1778201641 | 10° C | 59% | 1012.1 hPa | 0 mm | - | - | - |
| 1778201341 | 10.56° C | 56% | 1012.1 hPa | 0 mm | - | - | - |
| 1778201048 | 11.11° C | 53% | 1012.1 hPa | 0 mm | - | - | - |
| 1778200475 | 12.22° C | 48% | 1012.2 hPa | 0 mm | - | - | - |
| 1778200175 | 12.22° C | 46% | 1011.9 hPa | 0 mm | - | - | - |
| 1778200008 | 12.22° C | 44% | 1011.9 hPa | 0 mm | - | - | - |
| 1778200007 | 12.78° C | 43% | 1011.9 hPa | 0 mm | - | - | - |
| 1778200007 | 12.78° C | 44% | 1011.9 hPa | 0 mm | - | - | - |
| 1778200006 | 12.78° C | 42% | 1011.9 hPa | 0 mm | - | - | - |
| 1778198751 | 13.33° C | 42% | 1011.9 hPa | 0 mm | - | - | - |
| 1778198651 | 13.33° C | 41% | 1011.8 hPa | 0 mm | - | - | - |
| 1778198076 | 13.33° C | 41% | 1012.7 hPa | 0 mm | - | - | - |
| 1778197775 | 13.33° C | 41% | 1012.7 hPa | 0 mm | - | - | - |
| 1778197475 | 13.89° C | 40% | 1012.7 hPa | 0 mm | - | - | - |
| 1778196693 | 13.89° C | 40% | 1012.6 hPa | 0 mm | - | - | - |
| 1778196393 | 14.44° C | 39% | 1012.6 hPa | 0 mm | - | - | - |
| 1778196093 | 14.44° C | 39% | 1012.6 hPa | 0 mm | - | - | - |
| 1778195793 | 15° C | 39% | 1012.7 hPa | 0 mm | - | - | - |
| 1778195493 | 14.44° C | 39% | 1012.7 hPa | 0 mm | - | - | - |
| 1778195193 | 14.44° C | 39% | 1012.7 hPa | 0 mm | - | - | - |
* Rain latest hour (hover to see other rain measurements)
** Current wind speed in m/s (hover to see current wind gust speed)